sensor_id;sensor_type;location;lat;lon;timestamp;temperature;humidity
26378;DHT22;14078;50.974;6.786;2023-03-03T00:00:47;1.40;99.90
26378;DHT22;14078;50.974;6.786;2023-03-03T00:03:15;1.40;99.90
26378;DHT22;14078;50.974;6.786;2023-03-03T00:05:42;1.40;99.90
26378;DHT22;14078;50.974;6.786;2023-03-03T00:08:09;1.30;99.90
26378;DHT22;14078;50.974;6.786;2023-03-03T00:10:37;1.40;99.90
26378;DHT22;14078;50.974;6.786;2023-03-03T00:13:05;1.30;99.90
26378;DHT22;14078;50.974;6.786;2023-03-03T00:15:32;1.30;99.90
26378;DHT22;14078;50.974;6.786;2023-03-03T00:17:58;1.30;99.90
26378;DHT22;14078;50.974;6.786;2023-03-03T00:20:30;1.30;99.90
26378;DHT22;14078;50.974;6.786;2023-03-03T00:22:57;1.20;99.90
26378;DHT22;14078;50.974;6.786;2023-03-03T00:25:26;1.10;99.90
26378;DHT22;14078;50.974;6.786;2023-03-03T00:27:55;1.10;99.90
26378;DHT22;14078;50.974;6.786;2023-03-03T00:30:22;1.10;99.90
26378;DHT22;14078;50.974;6.786;2023-03-03T00:32:49;1.00;99.90
26378;DHT22;14078;50.974;6.786;2023-03-03T00:35:20;1.00;99.90
26378;DHT22;14078;50.974;6.786;2023-03-03T00:37:49;1.00;99.90
26378;DHT22;14078;50.974;6.786;2023-03-03T00:40:19;1.00;99.90
26378;DHT22;14078;50.974;6.786;2023-03-03T00:42:48;0.90;99.90
26378;DHT22;14078;50.974;6.786;2023-03-03T00:48:10;0.90;99.90
26378;DHT22;14078;50.974;6.786;2023-03-03T00:50:40;0.90;99.90
26378;DHT22;14078;50.974;6.786;2023-03-03T00:53:09;0.90;99.90
26378;DHT22;14078;50.974;6.786;2023-03-03T00:55:36;0.90;99.90
26378;DHT22;14078;50.974;6.786;2023-03-03T00:58:04;0.80;99.90
26378;DHT22;14078;50.974;6.786;2023-03-03T01:00:31;0.80;99.90
26378;DHT22;14078;50.974;6.786;2023-03-03T01:02:58;0.80;99.90
26378;DHT22;14078;50.974;6.786;2023-03-03T01:05:26;0.70;99.90
26378;DHT22;14078;50.974;6.786;2023-03-03T01:07:53;0.70;99.90
26378;DHT22;14078;50.974;6.786;2023-03-03T01:10:19;0.60;99.90
26378;DHT22;14078;50.974;6.786;2023-03-03T01:12:46;0.60;99.90
26378;DHT22;14078;50.974;6.786;2023-03-03T01:15:13;0.60;99.90
26378;DHT22;14078;50.974;6.786;2023-03-03T01:17:40;0.50;99.90
26378;DHT22;14078;50.974;6.786;2023-03-03T01:20:07;0.60;99.90
26378;DHT22;14078;50.974;6.786;2023-03-03T01:22:35;0.60;99.90
26378;DHT22;14078;50.974;6.786;2023-03-03T01:25:02;0.60;99.90
26378;DHT22;14078;50.974;6.786;2023-03-03T01:27:29;0.50;99.90
26378;DHT22;14078;50.974;6.786;2023-03-03T01:29:55;0.50;99.90
26378;DHT22;14078;50.974;6.786;2023-03-03T01:32:22;0.50;99.90
26378;DHT22;14078;50.974;6.786;2023-03-03T01:34:48;0.50;99.90
26378;DHT22;14078;50.974;6.786;2023-03-03T01:37:15;0.40;99.90
26378;DHT22;14078;50.974;6.786;2023-03-03T01:39:43;0.40;99.90
26378;DHT22;14078;50.974;6.786;2023-03-03T01:42:12;0.40;99.90
26378;DHT22;14078;50.974;6.786;2023-03-03T01:44:40;0.40;99.90
26378;DHT22;14078;50.974;6.786;2023-03-03T01:47:06;0.30;99.90
26378;DHT22;14078;50.974;6.786;2023-03-03T01:49:35;0.30;99.90
26378;DHT22;14078;50.974;6.786;2023-03-03T01:52:08;0.30;99.90
26378;DHT22;14078;50.974;6.786;2023-03-03T01:54:37;0.20;99.90
26378;DHT22;14078;50.974;6.786;2023-03-03T01:57:08;0.30;99.90
26378;DHT22;14078;50.974;6.786;2023-03-03T01:59:36;0.20;99.90
26378;DHT22;14078;50.974;6.786;2023-03-03T02:02:05;0.20;99.90
26378;DHT22;14078;50.974;6.786;2023-03-03T02:04:33;0.20;99.90
26378;DHT22;14078;50.974;6.786;2023-03-03T02:07:01;0.20;99.90
26378;DHT22;14078;50.974;6.786;2023-03-03T02:09:31;0.20;99.90
26378;DHT22;14078;50.974;6.786;2023-03-03T02:12:04;0.20;99.90
26378;DHT22;14078;50.974;6.786;2023-03-03T02:14:32;0.20;99.90
26378;DHT22;14078;50.974;6.786;2023-03-03T02:16:59;0.30;99.90
26378;DHT22;14078;50.974;6.786;2023-03-03T02:19:27;0.30;99.90
26378;DHT22;14078;50.974;6.786;2023-03-03T02:21:57;0.40;99.90
26378;DHT22;14078;50.974;6.786;2023-03-03T02:24:26;0.50;99.90
26378;DHT22;14078;50.974;6.786;2023-03-03T02:26:56;0.60;99.90
26378;DHT22;14078;50.974;6.786;2023-03-03T02:29:23;0.70;99.90
26378;DHT22;14078;50.974;6.786;2023-03-03T02:31:49;0.70;99.90
26378;DHT22;14078;50.974;6.786;2023-03-03T02:34:16;0.70;99.90
26378;DHT22;14078;50.974;6.786;2023-03-03T02:36:42;0.80;99.90
26378;DHT22;14078;50.974;6.786;2023-03-03T02:39:10;0.80;99.90
26378;DHT22;14078;50.974;6.786;2023-03-03T02:41:39;0.80;99.90
26378;DHT22;14078;50.974;6.786;2023-03-03T02:44:10;0.80;99.90
26378;DHT22;14078;50.974;6.786;2023-03-03T02:46:37;0.80;99.90
26378;DHT22;14078;50.974;6.786;2023-03-03T02:49:05;0.80;99.90
26378;DHT22;14078;50.974;6.786;2023-03-03T02:51:31;0.80;99.90
26378;DHT22;14078;50.974;6.786;2023-03-03T02:53:58;0.80;99.90
26378;DHT22;14078;50.974;6.786;2023-03-03T02:56:25;0.80;99.90
26378;DHT22;14078;50.974;6.786;2023-03-03T02:58:51;0.90;99.90
26378;DHT22;14078;50.974;6.786;2023-03-03T03:01:19;0.90;99.90
26378;DHT22;14078;50.974;6.786;2023-03-03T03:03:46;1.00;99.90
26378;DHT22;14078;50.974;6.786;2023-03-03T03:06:12;1.00;99.90
26378;DHT22;14078;50.974;6.786;2023-03-03T03:08:39;1.00;99.90
26378;DHT22;14078;50.974;6.786;2023-03-03T03:11:05;1.00;99.90
26378;DHT22;14078;50.974;6.786;2023-03-03T03:13:32;1.00;99.90
26378;DHT22;14078;50.974;6.786;2023-03-03T03:15:59;1.00;99.90
26378;DHT22;14078;50.974;6.786;2023-03-03T03:18:27;0.90;99.90
26378;DHT22;14078;50.974;6.786;2023-03-03T03:20:53;1.00;99.90
26378;DHT22;14078;50.974;6.786;2023-03-03T03:23:20;1.00;99.90
26378;DHT22;14078;50.974;6.786;2023-03-03T03:25:47;1.00;99.90
26378;DHT22;14078;50.974;6.786;2023-03-03T03:28:14;1.10;99.90
26378;DHT22;14078;50.974;6.786;2023-03-03T03:30:41;1.10;99.90
26378;DHT22;14078;50.974;6.786;2023-03-03T03:33:08;1.10;99.90
26378;DHT22;14078;50.974;6.786;2023-03-03T03:35:36;1.10;99.90
26378;DHT22;14078;50.974;6.786;2023-03-03T03:38:04;1.10;99.90
26378;DHT22;14078;50.974;6.786;2023-03-03T03:40:31;1.20;99.90
26378;DHT22;14078;50.974;6.786;2023-03-03T03:42:57;1.20;99.90
26378;DHT22;14078;50.974;6.786;2023-03-03T03:45:24;1.20;99.90
26378;DHT22;14078;50.974;6.786;2023-03-03T03:47:50;1.20;99.90
26378;DHT22;14078;50.974;6.786;2023-03-03T03:50:17;1.10;99.90
26378;DHT22;14078;50.974;6.786;2023-03-03T03:52:45;1.10;99.90
26378;DHT22;14078;50.974;6.786;2023-03-03T03:55:11;1.10;99.90
26378;DHT22;14078;50.974;6.786;2023-03-03T03:57:39;1.00;99.90
26378;DHT22;14078;50.974;6.786;2023-03-03T04:00:06;1.10;99.90
26378;DHT22;14078;50.974;6.786;2023-03-03T04:02:34;1.10;99.90
26378;DHT22;14078;50.974;6.786;2023-03-03T04:05:00;1.00;99.90
26378;DHT22;14078;50.974;6.786;2023-03-03T04:07:27;1.10;99.90
26378;DHT22;14078;50.974;6.786;2023-03-03T04:09:55;1.10;99.90
26378;DHT22;14078;50.974;6.786;2023-03-03T04:12:21;1.10;99.90
26378;DHT22;14078;50.974;6.786;2023-03-03T04:14:48;1.20;99.90
26378;DHT22;14078;50.974;6.786;2023-03-03T04:17:15;1.20;99.90
26378;DHT22;14078;50.974;6.786;2023-03-03T04:19:42;1.10;99.90
26378;DHT22;14078;50.974;6.786;2023-03-03T04:22:09;1.10;99.90
26378;DHT22;14078;50.974;6.786;2023-03-03T04:24:35;1.10;99.90
26378;DHT22;14078;50.974;6.786;2023-03-03T04:27:03;1.10;99.90
26378;DHT22;14078;50.974;6.786;2023-03-03T04:29:29;1.20;99.90
26378;DHT22;14078;50.974;6.786;2023-03-03T04:31:56;1.20;99.90
26378;DHT22;14078;50.974;6.786;2023-03-03T04:34:23;1.30;99.90
26378;DHT22;14078;50.974;6.786;2023-03-03T04:36:49;1.20;99.90
26378;DHT22;14078;50.974;6.786;2023-03-03T04:39:16;1.30;99.90
26378;DHT22;14078;50.974;6.786;2023-03-03T04:41:42;1.30;99.90
26378;DHT22;14078;50.974;6.786;2023-03-03T04:44:10;1.20;99.90
26378;DHT22;14078;50.974;6.786;2023-03-03T04:46:37;1.30;99.90
26378;DHT22;14078;50.974;6.786;2023-03-03T04:49:03;1.20;99.90
26378;DHT22;14078;50.974;6.786;2023-03-03T04:51:32;1.30;99.90
26378;DHT22;14078;50.974;6.786;2023-03-03T04:53:59;1.30;99.90
26378;DHT22;14078;50.974;6.786;2023-03-03T04:56:26;1.30;99.90
26378;DHT22;14078;50.974;6.786;2023-03-03T04:58:52;1.30;99.90
26378;DHT22;14078;50.974;6.786;2023-03-03T05:01:20;1.30;99.90
26378;DHT22;14078;50.974;6.786;2023-03-03T05:03:47;1.30;99.90
26378;DHT22;14078;50.974;6.786;2023-03-03T05:06:14;1.40;99.90
26378;DHT22;14078;50.974;6.786;2023-03-03T05:08:43;1.40;99.90
26378;DHT22;14078;50.974;6.786;2023-03-03T05:11:09;1.30;99.90
26378;DHT22;14078;50.974;6.786;2023-03-03T05:13:36;1.30;99.90
26378;DHT22;14078;50.974;6.786;2023-03-03T05:16:02;1.30;99.90
26378;DHT22;14078;50.974;6.786;2023-03-03T05:18:30;1.30;99.90
26378;DHT22;14078;50.974;6.786;2023-03-03T05:20:57;1.30;99.90
26378;DHT22;14078;50.974;6.786;2023-03-03T05:23:24;1.30;99.90
26378;DHT22;14078;50.974;6.786;2023-03-03T05:25:50;1.30;99.90
26378;DHT22;14078;50.974;6.786;2023-03-03T05:28:17;1.30;99.90
26378;DHT22;14078;50.974;6.786;2023-03-03T05:30:44;1.30;99.90
26378;DHT22;14078;50.974;6.786;2023-03-03T05:33:12;1.20;99.90
26378;DHT22;14078;50.974;6.786;2023-03-03T05:35:40;1.20;99.90
26378;DHT22;14078;50.974;6.786;2023-03-03T05:38:06;1.20;99.90
26378;DHT22;14078;50.974;6.786;2023-03-03T05:40:33;1.20;99.90
26378;DHT22;14078;50.974;6.786;2023-03-03T05:42:59;1.30;99.90
26378;DHT22;14078;50.974;6.786;2023-03-03T05:45:26;1.30;99.90
26378;DHT22;14078;50.974;6.786;2023-03-03T05:47:53;1.30;99.90
26378;DHT22;14078;50.974;6.786;2023-03-03T05:50:20;1.30;99.90
26378;DHT22;14078;50.974;6.786;2023-03-03T05:52:48;1.30;99.90
26378;DHT22;14078;50.974;6.786;2023-03-03T05:55:15;1.40;99.90
26378;DHT22;14078;50.974;6.786;2023-03-03T05:57:41;1.40;99.90
26378;DHT22;14078;50.974;6.786;2023-03-03T06:00:08;1.40;99.90
26378;DHT22;14078;50.974;6.786;2023-03-03T06:02:35;1.40;99.90
26378;DHT22;14078;50.974;6.786;2023-03-03T06:05:02;1.40;99.90
26378;DHT22;14078;50.974;6.786;2023-03-03T06:07:28;1.50;99.90
26378;DHT22;14078;50.974;6.786;2023-03-03T06:09:56;1.50;99.90
26378;DHT22;14078;50.974;6.786;2023-03-03T06:12:23;1.50;99.90
26378;DHT22;14078;50.974;6.786;2023-03-03T06:14:49;1.60;99.90
26378;DHT22;14078;50.974;6.786;2023-03-03T06:17:16;1.60;99.90
26378;DHT22;14078;50.974;6.786;2023-03-03T06:19:42;1.60;99.90
26378;DHT22;14078;50.974;6.786;2023-03-03T06:22:09;1.60;99.90
26378;DHT22;14078;50.974;6.786;2023-03-03T06:24:35;1.50;99.90
26378;DHT22;14078;50.974;6.786;2023-03-03T06:27:04;1.50;99.90
26378;DHT22;14078;50.974;6.786;2023-03-03T06:29:30;1.40;99.90
26378;DHT22;14078;50.974;6.786;2023-03-03T06:31:57;1.50;99.90
26378;DHT22;14078;50.974;6.786;2023-03-03T06:34:24;1.50;99.90
26378;DHT22;14078;50.974;6.786;2023-03-03T06:36:50;1.50;99.90
26378;DHT22;14078;50.974;6.786;2023-03-03T06:39:17;1.60;99.90
26378;DHT22;14078;50.974;6.786;2023-03-03T06:41:44;1.60;99.90
26378;DHT22;14078;50.974;6.786;2023-03-03T06:44:11;1.50;99.90
26378;DHT22;14078;50.974;6.786;2023-03-03T06:46:38;1.50;99.90
26378;DHT22;14078;50.974;6.786;2023-03-03T06:49:05;1.60;99.90
26378;DHT22;14078;50.974;6.786;2023-03-03T06:51:32;1.60;99.90
26378;DHT22;14078;50.974;6.786;2023-03-03T06:54:01;1.60;99.90
26378;DHT22;14078;50.974;6.786;2023-03-03T06:56:28;1.70;99.90
26378;DHT22;14078;50.974;6.786;2023-03-03T06:58:55;1.70;99.90
26378;DHT22;14078;50.974;6.786;2023-03-03T07:01:23;1.70;99.90
26378;DHT22;14078;50.974;6.786;2023-03-03T07:03:50;1.70;99.90
26378;DHT22;14078;50.974;6.786;2023-03-03T07:06:19;1.70;99.90
26378;DHT22;14078;50.974;6.786;2023-03-03T07:08:46;1.70;99.90
26378;DHT22;14078;50.974;6.786;2023-03-03T07:11:15;1.80;99.90
26378;DHT22;14078;50.974;6.786;2023-03-03T07:13:43;1.80;99.90
26378;DHT22;14078;50.974;6.786;2023-03-03T07:16:12;1.80;99.90
26378;DHT22;14078;50.974;6.786;2023-03-03T07:18:42;1.70;99.90
26378;DHT22;14078;50.974;6.786;2023-03-03T07:21:13;1.80;99.90
26378;DHT22;14078;50.974;6.786;2023-03-03T07:23:41;1.80;99.90
26378;DHT22;14078;50.974;6.786;2023-03-03T07:26:09;1.80;99.90
26378;DHT22;14078;50.974;6.786;2023-03-03T07:28:38;1.70;99.90
26378;DHT22;14078;50.974;6.786;2023-03-03T07:31:14;1.70;99.90
26378;DHT22;14078;50.974;6.786;2023-03-03T07:33:43;1.80;99.90
26378;DHT22;14078;50.974;6.786;2023-03-03T07:36:20;1.80;99.90
26378;DHT22;14078;50.974;6.786;2023-03-03T07:38:48;1.70;99.90
26378;DHT22;14078;50.974;6.786;2023-03-03T07:41:17;1.80;99.90
26378;DHT22;14078;50.974;6.786;2023-03-03T07:43:48;1.80;99.90
26378;DHT22;14078;50.974;6.786;2023-03-03T07:46:24;1.80;99.90
26378;DHT22;14078;50.974;6.786;2023-03-03T07:48:53;1.90;99.90
26378;DHT22;14078;50.974;6.786;2023-03-03T07:51:20;1.90;99.90
26378;DHT22;14078;50.974;6.786;2023-03-03T07:53:49;1.90;99.90
26378;DHT22;14078;50.974;6.786;2023-03-03T07:56:19;1.80;99.90
26378;DHT22;14078;50.974;6.786;2023-03-03T07:58:47;1.80;99.90
26378;DHT22;14078;50.974;6.786;2023-03-03T08:01:28;1.90;99.90
26378;DHT22;14078;50.974;6.786;2023-03-03T08:03:58;2.00;99.90
26378;DHT22;14078;50.974;6.786;2023-03-03T08:06:30;2.10;99.90
26378;DHT22;14078;50.974;6.786;2023-03-03T08:09:01;2.10;99.90
26378;DHT22;14078;50.974;6.786;2023-03-03T08:11:27;2.00;99.90
26378;DHT22;14078;50.974;6.786;2023-03-03T08:13:54;2.00;99.90
26378;DHT22;14078;50.974;6.786;2023-03-03T08:16:24;2.00;99.90
26378;DHT22;14078;50.974;6.786;2023-03-03T08:18:53;2.10;99.90
26378;DHT22;14078;50.974;6.786;2023-03-03T08:21:21;2.00;99.90
26378;DHT22;14078;50.974;6.786;2023-03-03T08:23:48;2.10;99.90
26378;DHT22;14078;50.974;6.786;2023-03-03T08:26:16;2.10;99.90
26378;DHT22;14078;50.974;6.786;2023-03-03T08:28:43;2.10;99.90
26378;DHT22;14078;50.974;6.786;2023-03-03T08:31:09;2.10;99.90
26378;DHT22;14078;50.974;6.786;2023-03-03T08:33:36;2.00;99.90
26378;DHT22;14078;50.974;6.786;2023-03-03T08:36:03;2.00;99.90
26378;DHT22;14078;50.974;6.786;2023-03-03T08:38:31;2.00;99.90
26378;DHT22;14078;50.974;6.786;2023-03-03T08:40:58;2.10;99.90
26378;DHT22;14078;50.974;6.786;2023-03-03T08:43:25;2.10;99.90
26378;DHT22;14078;50.974;6.786;2023-03-03T08:45:53;2.20;99.90
26378;DHT22;14078;50.974;6.786;2023-03-03T08:48:22;2.20;99.90
26378;DHT22;14078;50.974;6.786;2023-03-03T08:50:49;2.20;99.90
26378;DHT22;14078;50.974;6.786;2023-03-03T08:53:15;2.20;99.90
26378;DHT22;14078;50.974;6.786;2023-03-03T08:55:44;2.10;99.90
26378;DHT22;14078;50.974;6.786;2023-03-03T08:58:10;2.20;99.90
26378;DHT22;14078;50.974;6.786;2023-03-03T09:00:37;2.20;99.90
26378;DHT22;14078;50.974;6.786;2023-03-03T09:03:03;2.10;99.90
26378;DHT22;14078;50.974;6.786;2023-03-03T09:05:31;2.10;99.90
26378;DHT22;14078;50.974;6.786;2023-03-03T09:07:58;2.20;99.90
26378;DHT22;14078;50.974;6.786;2023-03-03T09:10:26;2.30;99.90
26378;DHT22;14078;50.974;6.786;2023-03-03T09:12:55;2.30;99.90
26378;DHT22;14078;50.974;6.786;2023-03-03T09:15:23;2.30;99.90
26378;DHT22;14078;50.974;6.786;2023-03-03T09:17:51;2.40;99.90
26378;DHT22;14078;50.974;6.786;2023-03-03T09:23:20;2.60;99.90
26378;DHT22;14078;50.974;6.786;2023-03-03T09:25:49;2.60;99.90
26378;DHT22;14078;50.974;6.786;2023-03-03T09:28:20;2.40;99.90
26378;DHT22;14078;50.974;6.786;2023-03-03T09:30:49;2.40;99.90
26378;DHT22;14078;50.974;6.786;2023-03-03T09:33:18;2.40;99.90
26378;DHT22;14078;50.974;6.786;2023-03-03T09:35:48;2.30;99.90
26378;DHT22;14078;50.974;6.786;2023-03-03T09:38:18;2.50;99.90
26378;DHT22;14078;50.974;6.786;2023-03-03T09:40:52;2.50;99.90
26378;DHT22;14078;50.974;6.786;2023-03-03T09:43:22;2.50;99.90
26378;DHT22;14078;50.974;6.786;2023-03-03T09:45:55;2.60;99.90
26378;DHT22;14078;50.974;6.786;2023-03-03T09:51:13;2.80;99.90
26378;DHT22;14078;50.974;6.786;2023-03-03T09:53:49;2.80;99.90
26378;DHT22;14078;50.974;6.786;2023-03-03T09:56:20;2.80;99.90
26378;DHT22;14078;50.974;6.786;2023-03-03T09:58:54;2.80;99.90
26378;DHT22;14078;50.974;6.786;2023-03-03T10:01:36;2.90;99.90
26378;DHT22;14078;50.974;6.786;2023-03-03T10:04:07;2.80;99.90
26378;DHT22;14078;50.974;6.786;2023-03-03T10:06:37;2.70;99.90
26378;DHT22;14078;50.974;6.786;2023-03-03T10:09:08;2.60;99.90
26378;DHT22;14078;50.974;6.786;2023-03-03T10:11:42;2.70;99.90
26378;DHT22;14078;50.974;6.786;2023-03-03T10:14:19;2.70;99.90
26378;DHT22;14078;50.974;6.786;2023-03-03T10:19:38;2.70;99.90
26378;DHT22;14078;50.974;6.786;2023-03-03T10:22:09;2.70;99.90
26378;DHT22;14078;50.974;6.786;2023-03-03T10:24:42;2.70;99.90
26378;DHT22;14078;50.974;6.786;2023-03-03T10:27:14;2.80;99.90
26378;DHT22;14078;50.974;6.786;2023-03-03T10:29:49;2.90;99.90
26378;DHT22;14078;50.974;6.786;2023-03-03T10:32:29;3.00;99.90
26378;DHT22;14078;50.974;6.786;2023-03-03T10:35:07;2.90;99.90
26378;DHT22;14078;50.974;6.786;2023-03-03T10:37:41;2.90;99.90
26378;DHT22;14078;50.974;6.786;2023-03-03T10:40:14;2.90;99.90
26378;DHT22;14078;50.974;6.786;2023-03-03T10:42:46;2.90;99.90
26378;DHT22;14078;50.974;6.786;2023-03-03T10:45:21;2.80;99.90
26378;DHT22;14078;50.974;6.786;2023-03-03T10:47:54;2.80;99.90
26378;DHT22;14078;50.974;6.786;2023-03-03T10:50:26;2.90;99.90
26378;DHT22;14078;50.974;6.786;2023-03-03T10:52:57;2.80;99.90
26378;DHT22;14078;50.974;6.786;2023-03-03T10:55:35;3.00;99.90
26378;DHT22;14078;50.974;6.786;2023-03-03T11:00:54;2.80;99.90
26378;DHT22;14078;50.974;6.786;2023-03-03T11:03:32;2.90;99.90
26378;DHT22;14078;50.974;6.786;2023-03-03T11:06:01;2.90;99.90
26378;DHT22;14078;50.974;6.786;2023-03-03T11:08:31;3.00;99.90
26378;DHT22;14078;50.974;6.786;2023-03-03T11:11:03;2.90;99.90
26378;DHT22;14078;50.974;6.786;2023-03-03T11:13:33;3.10;99.90
26378;DHT22;14078;50.974;6.786;2023-03-03T11:16:08;3.20;99.90
26378;DHT22;14078;50.974;6.786;2023-03-03T11:18:43;3.40;99.90
26378;DHT22;14078;50.974;6.786;2023-03-03T11:21:15;3.20;99.90
26378;DHT22;14078;50.974;6.786;2023-03-03T11:23:59;3.20;99.90
26378;DHT22;14078;50.974;6.786;2023-03-03T11:29:12;3.10;99.90
26378;DHT22;14078;50.974;6.786;2023-03-03T11:31:45;3.10;99.90
26378;DHT22;14078;50.974;6.786;2023-03-03T11:34:14;3.20;99.90
26378;DHT22;14078;50.974;6.786;2023-03-03T11:36:44;3.20;99.90
26378;DHT22;14078;50.974;6.786;2023-03-03T11:39:15;3.20;99.90
26378;DHT22;14078;50.974;6.786;2023-03-03T11:41:46;3.10;99.90
26378;DHT22;14078;50.974;6.786;2023-03-03T11:44:18;3.20;99.90
26378;DHT22;14078;50.974;6.786;2023-03-03T11:46:49;3.20;99.90
26378;DHT22;14078;50.974;6.786;2023-03-03T11:49:18;3.20;99.90
26378;DHT22;14078;50.974;6.786;2023-03-03T11:51:49;3.30;99.90
26378;DHT22;14078;50.974;6.786;2023-03-03T11:54:18;3.30;99.90
26378;DHT22;14078;50.974;6.786;2023-03-03T11:56:47;3.30;99.90
26378;DHT22;14078;50.974;6.786;2023-03-03T11:59:20;3.40;99.90
26378;DHT22;14078;50.974;6.786;2023-03-03T12:01:51;3.40;99.90
26378;DHT22;14078;50.974;6.786;2023-03-03T12:04:19;3.50;99.90
26378;DHT22;14078;50.974;6.786;2023-03-03T12:06:50;3.50;99.90
26378;DHT22;14078;50.974;6.786;2023-03-03T12:09:25;3.50;99.90
26378;DHT22;14078;50.974;6.786;2023-03-03T12:11:52;3.60;99.90
26378;DHT22;14078;50.974;6.786;2023-03-03T12:14:29;3.60;99.90
26378;DHT22;14078;50.974;6.786;2023-03-03T12:17:00;3.70;99.90
26378;DHT22;14078;50.974;6.786;2023-03-03T12:19:34;3.90;99.90
26378;DHT22;14078;50.974;6.786;2023-03-03T12:24:56;3.80;99.90
26378;DHT22;14078;50.974;6.786;2023-03-03T12:27:28;3.80;99.90
26378;DHT22;14078;50.974;6.786;2023-03-03T12:29:58;3.80;99.90
26378;DHT22;14078;50.974;6.786;2023-03-03T12:32:31;3.80;99.90
26378;DHT22;14078;50.974;6.786;2023-03-03T12:35:04;3.70;99.90
26378;DHT22;14078;50.974;6.786;2023-03-03T12:37:42;3.70;99.90
26378;DHT22;14078;50.974;6.786;2023-03-03T12:40:12;3.80;99.90
26378;DHT22;14078;50.974;6.786;2023-03-03T12:42:41;3.70;99.90
26378;DHT22;14078;50.974;6.786;2023-03-03T12:45:17;3.70;99.90
26378;DHT22;14078;50.974;6.786;2023-03-03T12:47:50;3.70;99.70
26378;DHT22;14078;50.974;6.786;2023-03-03T12:50:22;3.80;99.90
26378;DHT22;14078;50.974;6.786;2023-03-03T12:52:51;3.80;95.20
26378;DHT22;14078;50.974;6.786;2023-03-03T12:55:24;3.80;94.40
26378;DHT22;14078;50.974;6.786;2023-03-03T12:57:57;3.80;12.70
26378;DHT22;14078;50.974;6.786;2023-03-03T13:00:26;3.90;1.00
26378;DHT22;14078;50.974;6.786;2023-03-03T13:02:58;4.00;1.00
26378;DHT22;14078;50.974;6.786;2023-03-03T13:05:26;4.00;1.00
26378;DHT22;14078;50.974;6.786;2023-03-03T13:07:56;4.20;1.00
26378;DHT22;14078;50.974;6.786;2023-03-03T13:10:26;4.20;1.00
26378;DHT22;14078;50.974;6.786;2023-03-03T13:13:00;4.30;6.30
26378;DHT22;14078;50.974;6.786;2023-03-03T13:15:29;4.30;1.00
26378;DHT22;14078;50.974;6.786;2023-03-03T13:18:00;4.30;1.00
26378;DHT22;14078;50.974;6.786;2023-03-03T13:20:29;4.40;1.00
26378;DHT22;14078;50.974;6.786;2023-03-03T13:23:03;4.40;1.00
26378;DHT22;14078;50.974;6.786;2023-03-03T13:25:34;4.30;1.00
26378;DHT22;14078;50.974;6.786;2023-03-03T13:28:06;4.30;1.00
26378;DHT22;14078;50.974;6.786;2023-03-03T13:30:37;4.40;1.00
26378;DHT22;14078;50.974;6.786;2023-03-03T13:33:07;4.40;1.00
26378;DHT22;14078;50.974;6.786;2023-03-03T13:35:37;4.30;1.00
26378;DHT22;14078;50.974;6.786;2023-03-03T13:38:08;4.30;1.00
26378;DHT22;14078;50.974;6.786;2023-03-03T13:40:39;4.30;1.00
26378;DHT22;14078;50.974;6.786;2023-03-03T13:43:08;4.40;99.90
26378;DHT22;14078;50.974;6.786;2023-03-03T13:45:40;4.40;99.90
26378;DHT22;14078;50.974;6.786;2023-03-03T13:48:14;4.50;99.90
26378;DHT22;14078;50.974;6.786;2023-03-03T13:50:47;4.50;99.90
26378;DHT22;14078;50.974;6.786;2023-03-03T13:53:28;4.60;99.90
26378;DHT22;14078;50.974;6.786;2023-03-03T13:56:00;4.70;1.00
26378;DHT22;14078;50.974;6.786;2023-03-03T13:58:29;4.60;1.00
26378;DHT22;14078;50.974;6.786;2023-03-03T14:01:03;4.50;99.90
26378;DHT22;14078;50.974;6.786;2023-03-03T14:03:38;4.40;99.90
26378;DHT22;14078;50.974;6.786;2023-03-03T14:06:08;4.40;99.90
26378;DHT22;14078;50.974;6.786;2023-03-03T14:08:43;4.40;1.00
26378;DHT22;14078;50.974;6.786;2023-03-03T14:11:13;4.70;1.00
26378;DHT22;14078;50.974;6.786;2023-03-03T14:13:43;4.60;99.90
26378;DHT22;14078;50.974;6.786;2023-03-03T14:16:16;4.60;1.00
26378;DHT22;14078;50.974;6.786;2023-03-03T14:18:48;4.60;99.90
26378;DHT22;14078;50.974;6.786;2023-03-03T14:21:18;4.50;99.90
26378;DHT22;14078;50.974;6.786;2023-03-03T14:23:47;4.50;99.90
26378;DHT22;14078;50.974;6.786;2023-03-03T14:26:15;4.40;99.90
26378;DHT22;14078;50.974;6.786;2023-03-03T14:28:42;4.50;99.90
26378;DHT22;14078;50.974;6.786;2023-03-03T14:31:14;4.50;99.90
26378;DHT22;14078;50.974;6.786;2023-03-03T14:33:41;4.50;1.00
26378;DHT22;14078;50.974;6.786;2023-03-03T14:36:11;4.60;99.90
26378;DHT22;14078;50.974;6.786;2023-03-03T14:38:44;4.50;1.00
26378;DHT22;14078;50.974;6.786;2023-03-03T14:41:18;4.40;37.10
26378;DHT22;14078;50.974;6.786;2023-03-03T14:43:48;4.40;99.90
26378;DHT22;14078;50.974;6.786;2023-03-03T14:46:30;4.50;1.00
26378;DHT22;14078;50.974;6.786;2023-03-03T14:48:58;4.70;1.00
26378;DHT22;14078;50.974;6.786;2023-03-03T14:51:27;4.70;1.00
26378;DHT22;14078;50.974;6.786;2023-03-03T14:53:55;4.60;99.90
26378;DHT22;14078;50.974;6.786;2023-03-03T14:56:24;4.80;99.90
26378;DHT22;14078;50.974;6.786;2023-03-03T14:58:51;4.80;1.00
26378;DHT22;14078;50.974;6.786;2023-03-03T15:01:22;4.80;99.90
26378;DHT22;14078;50.974;6.786;2023-03-03T15:03:56;4.70;1.00
26378;DHT22;14078;50.974;6.786;2023-03-03T15:06:34;4.70;1.00
26378;DHT22;14078;50.974;6.786;2023-03-03T15:12:04;4.70;99.90
26378;DHT22;14078;50.974;6.786;2023-03-03T15:14:43;4.70;1.00
26378;DHT22;14078;50.974;6.786;2023-03-03T15:17:23;4.70;1.00
26378;DHT22;14078;50.974;6.786;2023-03-03T15:19:53;4.80;93.30
26378;DHT22;14078;50.974;6.786;2023-03-03T15:22:24;4.70;97.10
26378;DHT22;14078;50.974;6.786;2023-03-03T15:24:57;4.60;1.00
26378;DHT22;14078;50.974;6.786;2023-03-03T15:27:27;4.50;99.90
26378;DHT22;14078;50.974;6.786;2023-03-03T15:29:58;4.50;99.90
26378;DHT22;14078;50.974;6.786;2023-03-03T15:32:28;4.50;99.90
26378;DHT22;14078;50.974;6.786;2023-03-03T15:35:00;4.50;99.90
26378;DHT22;14078;50.974;6.786;2023-03-03T15:37:33;4.50;99.90
26378;DHT22;14078;50.974;6.786;2023-03-03T15:40:04;4.40;99.90
26378;DHT22;14078;50.974;6.786;2023-03-03T15:42:36;4.40;99.90
26378;DHT22;14078;50.974;6.786;2023-03-03T15:45:06;4.40;99.90
26378;DHT22;14078;50.974;6.786;2023-03-03T15:47:40;4.60;99.90
26378;DHT22;14078;50.974;6.786;2023-03-03T15:50:16;4.70;80.30
26378;DHT22;14078;50.974;6.786;2023-03-03T15:52:47;4.60;99.90
26378;DHT22;14078;50.974;6.786;2023-03-03T15:55:24;4.50;99.90
26378;DHT22;14078;50.974;6.786;2023-03-03T15:57:56;4.40;99.90
26378;DHT22;14078;50.974;6.786;2023-03-03T16:00:32;4.30;99.90
26378;DHT22;14078;50.974;6.786;2023-03-03T16:03:02;4.30;99.90
26378;DHT22;14078;50.974;6.786;2023-03-03T16:05:32;4.20;99.90
26378;DHT22;14078;50.974;6.786;2023-03-03T16:08:02;4.30;99.90
26378;DHT22;14078;50.974;6.786;2023-03-03T16:10:35;4.30;99.90
26378;DHT22;14078;50.974;6.786;2023-03-03T16:13:19;4.40;99.90
26378;DHT22;14078;50.974;6.786;2023-03-03T16:15:49;4.40;1.00
26378;DHT22;14078;50.974;6.786;2023-03-03T16:18:21;4.30;1.00
26378;DHT22;14078;50.974;6.786;2023-03-03T16:20:52;4.30;1.00
26378;DHT22;14078;50.974;6.786;2023-03-03T16:23:23;4.20;1.00